Time;durP1;ratioP1;P1;durP2;ratioP2;P2;SDS_P1;SDS_P2;PMS_P1;PMS_P2;Temp;Humidity;BMP_temperature;BMP_pressure;BME280_temperature;BME280_humidity;BME280_pressure;Samples;Min_cycle;Max_cycle;Signal;HPM_P1;HPM_P2
2023/10/18 00:01:01;;;;;;;4.40;2.95;;;;;;;6.30;81.13;101850.88;7392807;19;19914;-68
2023/10/18 00:03:31;;;;;;;5.93;3.15;;;;;;;6.29;81.33;101847.38;7393329;19;20348;-69
2023/10/18 00:06:11;;;;;;;4.43;2.90;;;;;;;6.26;81.48;101846.75;7393553;19;19918;-69
2023/10/18 00:08:40;;;;;;;3.72;2.88;;;;;;;6.24;81.57;101841.56;7390828;19;19991;-68
2023/10/18 00:11:09;;;;;;;4.50;3.05;;;;;;;6.21;81.90;101828.41;7389535;19;19921;-70
2023/10/18 00:13:38;;;;;;;5.05;3.08;;;;;;;6.21;81.50;101838.28;7390557;19;19947;-69
2023/10/18 00:16:08;;;;;;;4.93;3.05;;;;;;;6.20;82.03;101831.22;7392834;19;20444;-69
2023/10/18 00:18:37;;;;;;;5.70;3.78;;;;;;;6.22;81.84;101829.25;7392199;19;19930;-69
2023/10/18 00:21:09;;;;;;;4.28;2.65;;;;;;;6.22;81.91;101823.91;7390688;19;20330;-69
2023/10/18 00:23:39;;;;;;;;;;;;;;;6.07;83.79;101830.53;7398476;19;19925;-69
2023/10/18 00:26:08;;;;;;;9.80;3.40;;;;;;;6.16;81.84;101829.78;7397485;19;19978;-69
2023/10/18 00:28:38;;;;;;;8.07;4.35;;;;;;;6.15;81.72;101831.59;7396790;19;19922;-69
2023/10/18 00:31:27;;;;;;;4.80;3.90;;;;;;;6.10;82.89;101828.44;7398857;19;19930;-69
2023/10/18 00:33:55;;;;;;;5.32;3.08;;;;;;;6.13;82.31;101824.66;7396247;19;19926;-69
2023/10/18 00:36:27;;;;;;;8.95;4.25;;;;;;;6.14;82.57;101826.38;7395548;19;19948;-69
2023/10/18 00:38:55;;;;;;;5.60;3.45;;;;;;;6.12;82.81;101822.97;7396036;19;19948;-69
2023/10/18 00:41:32;;;;;;;8.20;3.85;;;;;;;6.12;82.08;101823.84;7395083;19;19943;-69
2023/10/18 00:44:01;;;;;;;6.93;3.75;;;;;;;6.12;82.31;101817.63;7397016;19;19919;-69
2023/10/18 00:46:32;;;;;;;8.52;4.20;;;;;;;6.12;82.57;101809.59;7395566;19;19927;-69
2023/10/18 00:49:00;;;;;;;7.95;4.10;;;;;;;6.10;82.47;101800.84;7396267;19;19926;-69
2023/10/18 00:51:32;;;;;;;8.98;4.28;;;;;;;6.07;82.69;101809.97;7391359;19;19926;-69
2023/10/18 00:54:00;;;;;;;8.15;4.10;;;;;;;6.04;82.72;101799.50;7392480;19;19938;-69
2023/10/18 00:56:29;;;;;;;7.20;3.67;;;;;;;6.04;82.66;101804.84;7397112;19;19972;-69
2023/10/18 00:58:59;;;;;;;6.75;4.63;;;;;;;6.03;82.85;101803.19;7395145;19;19960;-69
2023/10/18 01:01:29;;;;;;;6.35;4.00;;;;;;;6.04;82.81;101790.66;7394932;19;19925;-69
2023/10/18 01:03:57;;;;;;;5.70;3.80;;;;;;;6.04;82.83;101794.16;7396659;19;19935;-69
2023/10/18 01:06:29;;;;;;;7.03;4.28;;;;;;;6.03;82.92;101795.16;7394666;19;19926;-69
2023/10/18 01:09:00;;;;;;;7.07;3.80;;;;;;;6.01;82.96;101794.41;7395343;19;19934;-69
2023/10/18 01:11:30;;;;;;;8.38;4.60;;;;;;;5.98;82.99;101799.16;7388786;19;19922;-69
2023/10/18 01:13:59;;;;;;;7.47;4.50;;;;;;;5.95;83.16;101786.06;7393653;19;19978;-69
2023/10/18 01:16:31;;;;;;;7.30;4.18;;;;;;;5.95;83.14;101792.25;7394798;19;19939;-69
2023/10/18 01:18:59;;;;;;;7.68;4.75;;;;;;;5.91;83.32;101775.59;7394385;19;19974;-69
2023/10/18 01:21:28;;;;;;;6.32;4.63;;;;;;;5.88;83.16;101772.31;7392485;19;19937;-69
2023/10/18 01:24:00;;;;;;;6.13;4.25;;;;;;;5.86;83.32;101768.91;7395918;19;19930;-69
2023/10/18 01:26:36;;;;;;;7.25;3.92;;;;;;;5.86;83.48;101769.78;7395011;19;19922;-69
2023/10/18 01:29:08;;;;;;;6.75;3.75;;;;;;;5.84;83.26;101762.81;7391157;19;19980;-69
2023/10/18 01:31:37;;;;;;;9.82;4.45;;;;;;;5.81;83.41;101757.72;7392957;19;19930;-69
2023/10/18 01:34:06;;;;;;;7.32;3.92;;;;;;;5.78;83.62;101766.00;7393943;19;19926;-69
2023/10/18 01:36:38;;;;;;;6.25;3.78;;;;;;;5.74;83.68;101761.84;7394357;19;19957;-69
2023/10/18 01:39:18;;;;;;;5.80;3.90;;;;;;;5.72;83.63;101762.00;7392098;19;19925;-69
2023/10/18 01:41:51;;;;;;;8.75;3.97;;;;;;;5.71;84.27;101765.63;7391848;19;19953;-69
2023/10/18 01:44:30;;;;;;;4.65;3.35;;;;;;;5.73;83.92;101763.69;7393708;19;19941;-69
2023/10/18 01:47:04;;;;;;;7.95;3.42;;;;;;;5.69;84.09;101754.22;7393415;19;20337;-69
2023/10/18 01:49:38;;;;;;;6.78;3.58;;;;;;;5.67;84.18;101749.97;7393389;19;19922;-70
2023/10/18 01:52:08;;;;;;;5.68;3.08;;;;;;;5.69;84.29;101756.06;7390496;19;19929;-68
2023/10/18 01:54:38;;;;;;;4.93;3.45;;;;;;;5.67;84.19;101749.97;7393596;19;20522;-69
2023/10/18 01:57:11;;;;;;;5.10;3.42;;;;;;;5.68;84.72;101755.19;7390158;19;19923;-69
2023/10/18 01:59:40;;;;;;;8.27;3.75;;;;;;;5.70;84.37;101750.56;7391792;19;19922;-69
2023/10/18 02:02:10;;;;;;;6.43;3.90;;;;;;;5.70;84.33;101749.72;7387441;19;20007;-69
2023/10/18 02:04:40;;;;;;;7.35;4.03;;;;;;;5.66;84.29;101743.75;7394142;19;19922;-69
2023/10/18 02:07:09;;;;;;;5.32;3.67;;;;;;;5.65;84.68;101741.25;7396100;19;19932;-69
2023/10/18 02:09:44;;;;;;;4.80;3.38;;;;;;;5.64;84.73;101736.84;7391937;19;20001;-69
2023/10/18 02:12:18;;;;;;;4.45;3.22;;;;;;;5.62;84.66;101733.44;7394609;19;19918;-69
2023/10/18 02:14:47;;;;;;;4.80;3.45;;;;;;;5.58;84.96;101742.69;7394076;19;19969;-69
2023/10/18 02:17:18;;;;;;;6.82;4.05;;;;;;;5.56;85.09;101739.31;7395430;19;19923;-69
2023/10/18 02:19:47;;;;;;;4.85;3.28;;;;;;;5.57;84.90;101741.84;7392468;19;19933;-69
2023/10/18 02:22:16;;;;;;;5.65;3.67;;;;;;;5.55;85.14;101740.28;7392708;19;19926;-69
2023/10/18 02:24:45;;;;;;;5.70;3.53;;;;;;;5.52;84.94;101743.19;7394739;19;19940;-69
2023/10/18 02:27:19;;;;;;;5.97;3.92;;;;;;;5.49;85.25;101734.44;7393999;19;19992;-69
2023/10/18 02:29:48;;;;;;;5.57;3.83;;;;;;;5.47;85.68;101731.06;7395905;19;19918;-69
2023/10/18 02:32:32;;;;;;;8.25;4.55;;;;;;;5.47;85.72;101732.88;7394665;19;19939;-69
2023/10/18 02:35:00;;;;;;;6.57;3.60;;;;;;;5.45;85.47;101733.00;7393735;19;19926;-69
2023/10/18 02:37:31;;;;;;;7.53;4.03;;;;;;;5.44;85.74;101733.94;7393103;19;19938;-69
2023/10/18 02:40:28;;;;;;;6.20;3.88;;;;;;;5.47;85.66;101730.22;7392548;19;19927;-69
2023/10/18 02:43:07;;;;;;;4.75;3.40;;;;;;;5.44;85.72;101725.94;7393304;19;19915;-69
2023/10/18 02:45:36;;;;;;;5.85;3.53;;;;;;;5.45;85.68;101733.00;7392029;19;20368;-69
2023/10/18 02:48:08;;;;;;;4.65;3.40;;;;;;;5.42;85.54;101722.56;7391737;19;19926;-69
2023/10/18 02:50:38;;;;;;;5.15;3.47;;;;;;;5.42;85.65;101719.88;7388012;19;19942;-69
2023/10/18 02:53:07;;;;;;;7.55;3.83;;;;;;;5.39;85.75;101716.63;7393371;19;19926;-68
2023/10/18 02:55:38;;;;;;;7.85;4.05;;;;;;;5.38;85.56;101715.75;7393822;19;19932;-68
2023/10/18 02:58:10;;;;;;;6.53;3.50;;;;;;;5.35;85.85;101707.16;7393362;19;20281;-69
2023/10/18 03:00:44;;;;;;;6.97;4.18;;;;;;;5.32;85.99;101707.38;7392907;19;20006;-69
2023/10/18 03:03:14;;;;;;;8.10;4.50;;;;;;;5.30;86.19;101702.16;7394163;19;19925;-69
2023/10/18 03:05:44;;;;;;;6.60;4.43;;;;;;;5.29;86.12;101697.78;7392112;19;19918;-69
2023/10/18 03:08:13;;;;;;;7.50;4.10;;;;;;;5.27;86.79;101690.84;7392783;19;19922;-69
2023/10/18 03:10:45;;;;;;;6.22;4.28;;;;;;;5.27;86.42;101691.69;7387921;19;20262;-69
2023/10/18 03:13:18;;;;;;;8.20;3.95;;;;;;;5.28;86.81;101687.22;7393015;19;20568;-69
2023/10/18 03:16:04;;;;;;;6.63;4.18;;;;;;;5.25;86.52;101687.47;7391453;19;19930;-69
2023/10/18 03:18:34;;;;;;;6.78;4.38;;;;;;;5.22;86.60;101688.53;7394413;19;19943;-69
2023/10/18 03:21:07;;;;;;;7.70;4.82;;;;;;;5.21;86.50;101683.34;7391918;19;19929;-69
2023/10/18 03:23:44;;;;;;;6.97;4.30;;;;;;;5.20;86.57;101685.16;7393551;19;19922;-69
2023/10/18 03:26:13;;;;;;;9.05;4.15;;;;;;;5.19;86.69;101683.47;7393735;19;20715;-68
2023/10/18 03:28:46;;;;;;;7.03;4.38;;;;;;;5.16;86.89;101680.19;7391631;19;19978;-70
2023/10/18 03:34:02;;;;;;;11.25;4.57;;;;;;;5.11;86.98;101661.84;7392228;19;19922;-71
2023/10/18 03:36:32;;;;;;;8.18;4.97;;;;;;;5.12;87.18;101660.91;7393295;19;20400;-71
2023/10/18 03:39:11;;;;;;;8.32;4.65;;;;;;;5.12;87.16;101654.69;7390333;19;19926;-71
2023/10/18 03:41:43;;;;;;;9.32;5.10;;;;;;;5.10;87.09;101651.28;7390024;19;20348;-70
2023/10/18 03:44:15;;;;;;;10.93;4.50;;;;;;;5.09;87.28;101661.13;7391354;19;20349;-70
2023/10/18 03:46:47;;;;;;;8.43;4.90;;;;;;;5.10;87.22;101660.16;7389874;19;19926;-70
2023/10/18 03:49:22;;;;;;;7.65;4.40;;;;;;;5.12;87.70;101649.38;7392480;19;20401;-68
2023/10/18 03:51:54;;;;;;;8.63;5.20;;;;;;;5.13;87.40;101643.91;7389676;19;19918;-67
2023/10/18 03:54:23;;;;;;;11.70;5.20;;;;;;;5.14;87.34;101637.56;7389448;19;19923;-67
2023/10/18 03:56:55;;;;;;;6.82;4.93;;;;;;;5.12;87.60;101634.19;7390365;19;19934;-68
2023/10/18 03:59:26;;;;;;;8.77;5.45;;;;;;;5.11;87.81;101623.63;7397316;19;19930;-68
2023/10/18 04:02:07;;;;;;;8.50;4.30;;;;;;;5.10;87.69;101630.78;7397831;19;19922;-68
2023/10/18 04:04:38;;;;;;;11.02;5.78;;;;;;;5.09;88.09;101623.72;7398478;19;19922;-68
2023/10/18 04:07:16;;;;;;;9.35;5.40;;;;;;;5.10;87.85;101625.44;7395750;19;19978;-69
2023/10/18 04:09:50;;;;;;;10.05;5.30;;;;;;;5.09;87.75;101621.06;7392062;19;19990;-69
2023/10/18 04:12:19;;;;;;;12.15;5.40;;;;;;;5.09;87.94;101618.38;7393443;19;19930;-68
2023/10/18 04:14:58;;;;;;;11.35;5.55;;;;;;;5.09;88.24;101618.38;7396781;19;19926;-68
2023/10/18 04:17:36;;;;;;;13.55;6.63;;;;;;;5.10;87.99;101620.09;7394538;19;19957;-69
2023/10/18 04:20:22;;;;;;;9.23;5.40;;;;;;;5.09;87.98;101614.91;7398312;19;19929;-69
2023/10/18 04:22:50;;;;;;;8.75;4.88;;;;;;;5.07;88.00;101609.66;7397456;19;20345;-69
2023/10/18 04:25:25;;;;;;;13.02;5.28;;;;;;;5.05;88.16;101597.44;7394732;19;20623;-69
2023/10/18 04:27:54;;;;;;;11.10;6.32;;;;;;;5.02;88.35;101599.34;7394852;19;19921;-68
2023/10/18 04:30:25;;;;;;;12.23;6.28;;;;;;;5.01;88.65;101599.47;7395772;19;19933;-69
2023/10/18 04:32:59;;;;;;;10.57;5.47;;;;;;;5.02;88.43;101593.16;7394905;19;20256;-69
2023/10/18 04:35:29;;;;;;;10.25;5.85;;;;;;;5.02;88.50;101598.50;7393518;19;19929;-69
2023/10/18 04:37:58;;;;;;;12.95;7.47;;;;;;;5.03;88.61;101589.53;7390959;19;20557;-69
2023/10/18 04:40:27;;;;;;;10.02;6.00;;;;;;;5.00;88.70;101590.59;7392878;19;19918;-69
2023/10/18 04:42:57;;;;;;;11.15;6.13;;;;;;;5.00;89.00;101585.25;7395133;19;19989;-69
2023/10/18 04:45:29;;;;;;;14.60;6.93;;;;;;;5.03;88.60;101581.53;7394430;19;19918;-68
2023/10/18 04:48:06;;;;;;;13.50;6.90;;;;;;;5.02;88.78;101569.97;7394645;19;19918;-69
2023/10/18 04:50:39;;;;;;;11.32;6.40;;;;;;;5.02;88.74;101569.97;7393416;19;21137;-69
2023/10/18 04:53:12;;;;;;;12.57;6.13;;;;;;;5.02;88.71;101563.78;7394862;19;20510;-68
2023/10/18 04:55:46;;;;;;;11.00;6.82;;;;;;;5.02;88.85;101558.44;7394807;19;19934;-69
2023/10/18 04:58:15;;;;;;;10.00;6.38;;;;;;;5.01;88.98;101556.75;7396555;19;19932;-68
2023/10/18 05:00:57;;;;;;;11.27;6.60;;;;;;;5.03;89.01;101544.13;7392258;19;20316;-69
2023/10/18 05:03:30;;;;;;;10.57;6.63;;;;;;;5.04;88.54;101545.84;7393802;19;19926;-69
2023/10/18 05:06:00;;;;;;;12.05;6.32;;;;;;;5.01;88.99;101546.91;7395456;19;19918;-68
2023/10/18 05:08:30;;;;;;;12.48;6.80;;;;;;;5.00;88.68;101545.22;7391861;19;19931;-68
2023/10/18 05:11:22;;;;;;;11.48;6.47;;;;;;;4.98;88.44;101536.50;7394187;19;19986;-69
2023/10/18 05:13:48;;;;;;;12.02;6.78;;;;;;;4.97;88.79;101539.28;7392338;19;19922;-69
2023/10/18 05:16:21;;;;;;;12.82;6.68;;;;;;;4.95;88.51;101541.25;7393351;19;19941;-69
2023/10/18 05:18:50;;;;;;;14.18;7.15;;;;;;;4.91;89.03;101540.66;7395689;19;19957;-68
2023/10/18 05:21:21;;;;;;;10.63;7.38;;;;;;;4.90;88.80;101538.09;7391932;19;19995;-69
2023/10/18 05:23:50;;;;;;;13.27;6.65;;;;;;;4.86;89.00;101542.84;7396041;19;19952;-69
2023/10/18 05:26:19;;;;;;;11.80;7.40;;;;;;;4.86;88.84;101540.16;7393988;19;19922;-69
2023/10/18 05:28:52;;;;;;;14.63;7.25;;;;;;;4.84;88.95;101543.91;7390361;19;19925;-68
2023/10/18 05:31:27;;;;;;;10.93;6.85;;;;;;;4.81;88.83;101534.34;7395004;19;19922;-69
2023/10/18 05:34:02;;;;;;;13.63;7.38;;;;;;;4.78;89.21;101533.75;7393610;19;19923;-68
2023/10/18 05:36:54;;;;;;;13.35;7.22;;;;;;;4.78;89.05;101536.41;7391285;19;19981;-68
2023/10/18 05:39:33;;;;;;;14.88;7.63;;;;;;;4.76;89.26;101533.00;7394714;19;19957;-68
2023/10/18 05:41:59;;;;;;;13.82;7.38;;;;;;;4.76;89.26;101533.00;7394270;19;19926;-69
2023/10/18 05:44:28;;;;;;;;;;;;;;;4.63;90.74;101524.28;7399081;19;19958;-69
2023/10/18 05:46:59;;;;;;;13.25;7.45;;;;;;;4.71;89.63;101535.19;7395698;19;19927;-68
2023/10/18 05:49:34;;;;;;;12.30;7.45;;;;;;;4.73;89.41;101527.94;7391509;19;19932;-69
2023/10/18 05:52:16;;;;;;;16.45;8.30;;;;;;;4.73;89.46;101534.13;7391261;19;19915;-70
2023/10/18 05:54:46;;;;;;;14.75;8.27;;;;;;;4.74;89.46;101521.63;7395086;19;19922;-69
2023/10/18 05:57:19;;;;;;;16.30;7.72;;;;;;;4.73;89.41;101526.09;7391950;19;19923;-69
2023/10/18 05:59:48;;;;;;;15.18;7.97;;;;;;;4.71;89.53;101516.50;7392207;19;19918;-69
2023/10/18 06:02:25;;;;;;;13.02;7.40;;;;;;;4.69;89.30;101514.00;7391721;19;19943;-69
2023/10/18 06:04:55;;;;;;;16.13;7.43;;;;;;;4.67;89.48;101509.72;7388849;19;19929;-69
2023/10/18 06:07:26;;;;;;;14.18;8.02;;;;;;;4.65;89.27;101511.69;7391910;19;19922;-70
2023/10/18 06:09:58;;;;;;;13.25;7.55;;;;;;;4.63;89.37;101518.94;7393717;19;19955;-69
2023/10/18 06:12:27;;;;;;;;;;;;;;;4.49;90.97;101509.38;7395833;19;20455;-69
2023/10/18 06:14:57;;;;;;;13.95;7.90;;;;;;;4.56;89.86;101507.94;7395355;19;20656;-69
2023/10/18 06:17:46;;;;;;;12.70;7.72;;;;;;;4.57;89.48;101506.97;7391959;19;19922;-70
2023/10/18 06:20:24;;;;;;;12.25;7.15;;;;;;;4.55;89.68;101504.41;7389361;19;19922;-69
2023/10/18 06:22:53;;;;;;;16.90;8.50;;;;;;;4.58;89.95;101500.63;7393519;19;19918;-69
2023/10/18 06:25:34;;;;;;;15.50;7.97;;;;;;;4.58;89.88;101496.16;7393749;19;19921;-69
2023/10/18 06:28:06;;;;;;;14.90;8.43;;;;;;;4.63;89.89;101494.94;7394309;19;20029;-68
2023/10/18 06:30:39;;;;;;;13.27;7.85;;;;;;;4.65;89.69;101491.19;7394392;19;20447;-68
2023/10/18 06:33:12;;;;;;;13.18;7.57;;;;;;;4.67;89.54;101494.56;7391303;19;19930;-68
2023/10/18 06:35:51;;;;;;;16.98;8.25;;;;;;;4.70;89.60;101493.50;7389929;19;19922;-68
2023/10/18 06:38:22;;;;;;;14.32;8.50;;;;;;;4.70;89.97;101501.50;7392133;19;20315;-70
2023/10/18 06:40:53;;;;;;;15.77;8.85;;;;;;;4.71;89.81;101490.69;7391702;19;19923;-68
2023/10/18 06:43:22;;;;;;;13.13;7.68;;;;;;;4.75;89.77;101491.28;7392896;19;20325;-68
2023/10/18 06:45:51;;;;;;;13.88;8.30;;;;;;;4.77;89.71;101487.53;7389016;19;20337;-68
2023/10/18 06:48:26;;;;;;;15.00;7.70;;;;;;;4.77;89.73;101487.53;7394366;19;19930;-68
2023/10/18 06:50:55;;;;;;;12.98;7.68;;;;;;;4.81;89.69;101490.78;7390889;19;20419;-68
2023/10/18 06:53:25;;;;;;;16.55;8.57;;;;;;;4.83;89.88;101488.84;7392539;19;20288;-68
2023/10/18 06:55:58;;;;;;;18.73;8.13;;;;;;;4.85;89.93;101495.75;7386771;19;19923;-68
2023/10/18 07:01:14;;;;;;;14.07;8.63;;;;;;;4.92;90.05;101488.06;7391554;19;19933;-68
2023/10/18 07:03:45;;;;;;;15.02;8.30;;;;;;;4.95;90.33;101485.19;7392977;19;21281;-68
2023/10/18 07:06:18;;;;;;;17.10;9.00;;;;;;;5.01;90.25;101487.31;7383391;19;19926;-68
2023/10/18 07:08:49;;;;;;;14.43;7.70;;;;;;;5.05;90.14;101477.25;7390406;19;19962;-68
2023/10/18 07:11:22;;;;;;;16.85;8.10;;;;;;;5.11;90.44;101472.25;7389591;19;19922;-68
2023/10/18 07:13:53;;;;;;;14.30;8.20;;;;;;;5.16;89.96;101467.38;7392693;19;19919;-68
2023/10/18 07:16:35;;;;;;;15.73;7.57;;;;;;;5.22;90.22;101468.69;7390749;19;19952;-68
2023/10/18 07:19:21;;;;;;;20.15;9.63;;;;;;;5.28;90.01;101474.38;7391558;19;19953;-68
2023/10/18 07:21:50;;;;;;;16.50;8.63;;;;;;;5.31;89.93;101465.22;7393158;19;19926;-68
2023/10/18 07:24:20;;;;;;;17.27;8.50;;;;;;;5.34;89.47;101457.84;7390284;19;19941;-68
2023/10/18 07:26:53;;;;;;;15.40;8.30;;;;;;;5.38;89.70;101456.59;7393199;19;19930;-68
2023/10/18 07:29:23;;;;;;;14.50;8.95;;;;;;;5.43;89.70;101461.56;7391238;19;19930;-68
2023/10/18 07:31:53;;;;;;;13.35;7.60;;;;;;;5.47;89.64;101453.16;7391800;19;19923;-68
2023/10/18 07:34:28;;;;;;;15.35;8.50;;;;;;;5.52;89.71;101462.59;7391826;19;19943;-69
2023/10/18 07:36:57;;;;;;;15.55;8.98;;;;;;;5.56;89.71;101446.19;7387356;19;20573;-68
2023/10/18 07:39:26;;;;;;;17.10;8.57;;;;;;;5.61;89.39;101454.63;7392605;19;19933;-68
2023/10/18 07:41:55;;;;;;;20.67;8.85;;;;;;;5.67;89.23;101453.25;7390998;19;19953;-69
2023/10/18 07:44:24;;;;;;;14.95;8.73;;;;;;;5.72;89.34;101443.03;7392641;19;19925;-68
2023/10/18 07:46:53;;;;;;;16.35;7.75;;;;;;;5.77;89.53;101438.13;7390035;19;19955;-69
2023/10/18 07:49:21;;;;;;;15.85;8.93;;;;;;;5.83;89.33;101434.91;7390581;19;19918;-69
2023/10/18 07:51:55;;;;;;;16.33;8.63;;;;;;;5.88;89.29;101436.25;7390032;19;19978;-68
2023/10/18 07:54:24;;;;;;;14.77;8.23;;;;;;;5.93;89.04;101433.19;7391470;19;20695;-68
2023/10/18 07:56:54;;;;;;;14.18;7.07;;;;;;;5.98;88.97;101425.63;7388946;19;20257;-69
2023/10/18 07:59:30;;;;;;;15.90;7.93;;;;;;;6.03;88.75;101431.41;7389409;19;19943;-68
2023/10/18 08:04:40;;;;;;;13.77;7.30;;;;;;;6.15;88.63;101427.66;7387875;19;19937;-68
2023/10/18 08:07:15;;;;;;;16.15;8.35;;;;;;;6.21;88.61;101410.22;7389043;19;19914;-68
2023/10/18 08:09:48;;;;;;;15.20;7.88;;;;;;;6.28;88.34;101406.88;7389347;19;19986;-68
2023/10/18 08:12:28;;;;;;;13.80;7.28;;;;;;;6.35;87.81;101399.97;7388588;19;20002;-68
2023/10/18 08:14:57;;;;;;;12.15;7.40;;;;;;;6.43;87.76;101411.84;7386912;19;19926;-68
2023/10/18 08:17:42;;;;;;;14.38;7.75;;;;;;;6.50;87.61;101404.94;7385794;19;20826;-68
2023/10/18 08:23:05;;;;;;;12.85;7.32;;;;;;;6.66;87.26;101399.88;7391171;19;20463;-69
2023/10/18 08:25:34;;;;;;;12.35;7.35;;;;;;;6.74;87.00;101400.03;7389601;19;19930;-70
2023/10/18 08:28:06;;;;;;;12.35;7.50;;;;;;;6.83;86.72;101393.84;7391911;19;19943;-69
2023/10/18 08:31:03;;;;;;;15.00;7.70;;;;;;;6.92;86.93;101390.34;7387283;19;19958;-69
2023/10/18 08:33:30;;;;;;;11.13;7.40;;;;;;;6.98;86.65;101389.78;7389391;19;19922;-68
2023/10/18 08:36:07;;;;;;;14.43;7.80;;;;;;;7.05;86.38;101390.03;7386475;19;19922;-69
2023/10/18 08:38:41;;;;;;;13.98;7.05;;;;;;;7.13;86.58;101385.66;7388775;19;19935;-69
2023/10/18 08:41:15;;;;;;;11.98;7.32;;;;;;;7.21;86.07;101383.13;7391933;19;20691;-68
2023/10/18 08:44:05;;;;;;;10.25;6.32;;;;;;;7.29;86.01;101379.75;7392763;19;20253;-69
2023/10/18 08:46:38;;;;;;;13.32;6.97;;;;;;;7.37;85.84;101373.66;7397664;19;19926;-69
2023/10/18 08:49:09;;;;;;;13.50;8.00;;;;;;;7.43;85.68;101378.44;7392485;19;19926;-70
2023/10/18 08:51:43;;;;;;;17.13;7.47;;;;;;;7.50;84.70;101376.88;7392753;19;19926;-69
2023/10/18 08:54:22;;;;;;;14.25;7.78;;;;;;;7.57;85.20;101381.50;7395898;19;19915;-69
2023/10/18 08:56:52;;;;;;;12.40;7.47;;;;;;;7.64;84.93;101371.88;7396200;19;19918;-69
2023/10/18 08:59:24;;;;;;;12.05;7.32;;;;;;;7.71;84.33;101374.84;7394171;19;19933;-69
2023/10/18 09:02:09;;;;;;;10.23;6.65;;;;;;;7.80;84.50;101370.44;7396688;19;19929;-69
2023/10/18 09:04:38;;;;;;;11.05;6.75;;;;;;;7.87;84.20;101367.00;7392370;19;19930;-69
2023/10/18 09:07:18;;;;;;;10.48;5.72;;;;;;;7.93;83.92;101355.72;7390874;19;19927;-69
2023/10/18 09:09:53;;;;;;;11.32;6.85;;;;;;;7.99;84.13;101357.78;7393687;19;19911;-70
2023/10/18 09:12:32;;;;;;;10.82;7.53;;;;;;;8.04;83.86;101358.19;7393469;19;19926;-70
2023/10/18 09:14:59;;;;;;;10.80;6.78;;;;;;;8.10;83.86;101354.06;7389361;19;19922;-69
2023/10/18 09:17:27;;;;;;;10.68;6.55;;;;;;;8.18;83.48;101349.66;7392973;19;20268;-69
2023/10/18 09:20:00;;;;;;;13.57;7.70;;;;;;;8.26;83.26;101340.84;7389586;19;19923;-69
2023/10/18 09:22:29;;;;;;;10.48;6.95;;;;;;;8.35;82.70;101333.75;7389411;19;20575;-69
2023/10/18 09:25:00;;;;;;;13.05;7.00;;;;;;;8.41;82.34;101328.63;7386910;19;19922;-70
2023/10/18 09:27:29;;;;;;;11.82;6.95;;;;;;;8.49;82.06;101331.41;7387512;19;19959;-70
2023/10/18 09:29:58;;;;;;;11.80;6.57;;;;;;;8.54;81.68;101325.56;7389816;19;20004;-68
2023/10/18 09:32:35;;;;;;;11.85;6.65;;;;;;;8.56;81.41;101316.34;7384306;19;19918;-68
2023/10/18 09:35:09;;;;;;;11.43;7.68;;;;;;;8.63;81.02;101316.56;7388209;19;19915;-68
2023/10/18 09:37:40;;;;;;;10.43;6.45;;;;;;;8.71;80.90;101310.44;7395724;19;20368;-68
2023/10/18 09:40:14;;;;;;;11.13;6.57;;;;;;;8.77;80.48;101307.13;7390363;19;19926;-68
2023/10/18 09:42:44;;;;;;;12.00;6.75;;;;;;;8.84;80.35;101306.38;7385696;19;19926;-68
2023/10/18 09:45:14;;;;;;;9.82;6.05;;;;;;;8.90;80.01;101288.78;7393970;19;19927;-68
2023/10/18 09:47:43;;;;;;;8.90;5.78;;;;;;;8.94;79.64;101293.69;7395502;19;20329;-69
2023/10/18 09:50:23;;;;;;;12.82;6.70;;;;;;;8.96;79.48;101289.00;7392275;19;20349;-68
2023/10/18 09:52:56;;;;;;;10.43;6.45;;;;;;;9.00;79.21;101292.22;7390840;19;19927;-70
2023/10/18 09:55:29;;;;;;;8.75;6.00;;;;;;;9.03;79.05;101283.84;7388303;19;20341;-68
2023/10/18 09:58:14;;;;;;;11.68;6.65;;;;;;;9.07;79.01;101277.13;7388215;19;19939;-69
2023/10/18 10:00:47;;;;;;;8.05;5.38;;;;;;;9.10;78.82;101271.47;7388337;19;19961;-69
2023/10/18 10:03:24;;;;;;;9.52;5.65;;;;;;;9.15;79.11;101265.63;7391363;19;19933;-68
2023/10/18 10:05:57;;;;;;;10.70;6.07;;;;;;;9.20;78.96;101263.28;7392960;19;19918;-68
2023/10/18 10:08:31;;;;;;;10.30;6.30;;;;;;;9.27;78.77;101261.66;7392865;19;19931;-69
2023/10/18 10:11:13;;;;;;;10.50;5.80;;;;;;;9.32;78.42;101253.97;7393746;19;19922;-69
2023/10/18 10:13:42;;;;;;;8.63;5.70;;;;;;;9.38;78.22;101253.31;7392306;19;19926;-69
2023/10/18 10:16:13;;;;;;;12.43;6.72;;;;;;;9.45;78.02;101243.59;7385913;19;19919;-69
2023/10/18 10:18:47;;;;;;;9.63;6.13;;;;;;;9.51;77.54;101238.44;7386001;19;19926;-69
2023/10/18 10:21:21;;;;;;;11.60;6.25;;;;;;;9.59;76.96;101240.31;7389590;19;20245;-69
2023/10/18 10:23:55;;;;;;;10.95;5.90;;;;;;;9.65;76.75;101239.66;7395599;19;19925;-69
2023/10/18 10:26:28;;;;;;;9.50;5.85;;;;;;;9.68;76.19;101225.88;7393299;19;19929;-69
2023/10/18 10:29:33;;;;;;;9.35;6.22;;;;;;;9.71;75.93;101222.84;7386731;19;19926;-69
2023/10/18 10:32:04;;;;;;;9.32;6.15;;;;;;;9.80;75.92;101216.50;7393412;19;19926;-69
2023/10/18 10:34:37;;;;;;;9.82;5.93;;;;;;;9.86;75.53;101207.78;7384687;19;20404;-70
2023/10/18 10:37:09;;;;;;;9.23;5.75;;;;;;;9.96;75.59;101213.03;7385216;19;19930;-69
2023/10/18 10:39:44;;;;;;;8.65;5.85;;;;;;;10.04;75.86;101202.28;7393185;19;19922;-70
2023/10/18 10:42:44;;;;;;;11.30;6.75;;;;;;;10.11;74.47;101200.59;7394042;19;19922;-68
2023/10/18 10:45:23;;;;;;;9.82;6.20;;;;;;;10.25;75.01;101201.84;7387551;19;19994;-68
2023/10/18 10:47:52;;;;;;;9.43;6.00;;;;;;;10.36;74.52;101190.72;7393780;19;19943;-68
2023/10/18 10:50:45;;;;;;;9.55;5.97;;;;;;;10.43;72.52;101191.75;7391190;19;19929;-68
2023/10/18 10:53:19;;;;;;;12.52;5.93;;;;;;;10.55;73.05;101190.41;7392518;19;19918;-69
2023/10/18 10:55:51;;;;;;;8.02;5.40;;;;;;;10.66;72.53;101176.56;7386301;19;20380;-70
2023/10/18 10:58:29;;;;;;;10.68;5.55;;;;;;;10.76;72.07;101179.94;7385737;19;19943;-69
2023/10/18 11:01:06;;;;;;;27.50;6.32;;;;;;;10.83;71.75;101174.69;7391097;19;19928;-69
2023/10/18 11:03:52;;;;;;;9.43;5.45;;;;;;;10.90;72.58;101163.06;7390800;19;20748;-69
2023/10/18 11:06:26;;;;;;;8.23;4.93;;;;;;;11.00;72.08;101162.88;7387945;19;19926;-68
2023/10/18 11:08:56;;;;;;;7.20;5.38;;;;;;;11.09;72.68;101161.00;7391102;19;19926;-69
2023/10/18 11:11:26;;;;;;;9.50;5.47;;;;;;;11.18;71.95;101154.56;7392554;19;19918;-69
2023/10/18 11:13:58;;;;;;;9.45;5.50;;;;;;;11.14;69.96;101145.97;7392599;19;20020;-68
2023/10/18 11:16:26;;;;;;;8.15;5.93;;;;;;;11.20;71.96;101139.91;7390722;19;19960;-68
2023/10/18 11:18:55;;;;;;;7.45;5.50;;;;;;;11.24;70.92;101135.84;7383442;19;19926;-69
2023/10/18 11:21:24;;;;;;;11.00;5.88;;;;;;;11.29;70.12;101135.31;7379851;19;20382;-69
2023/10/18 11:23:57;;;;;;;7.35;5.45;;;;;;;11.36;70.33;101125.50;7389091;19;19923;-69
2023/10/18 11:26:27;;;;;;;9.40;5.30;;;;;;;11.41;70.01;101112.31;7392557;19;19930;-70
2023/10/18 11:28:59;;;;;;;7.50;5.07;;;;;;;11.43;68.96;101118.41;7392941;19;20320;-69
2023/10/18 11:31:29;;;;;;;;;;;;;;;11.42;69.74;101107.78;7391477;19;20695;-70
2023/10/18 11:34:07;;;;;;;7.47;5.30;;;;;;;11.46;69.19;101109.09;7392077;19;20019;-70
2023/10/18 11:36:38;;;;;;;7.82;5.38;;;;;;;11.47;69.38;101106.22;7389715;19;19929;-70
2023/10/18 11:39:18;;;;;;;8.00;5.57;;;;;;;11.50;69.81;101089.69;7393801;19;19936;-69
2023/10/18 11:41:45;;;;;;;9.02;5.10;;;;;;;11.53;69.30;101091.16;7394184;19;20830;-70
2023/10/18 11:44:27;;;;;;;8.07;4.82;;;;;;;11.51;67.71;101077.88;7390525;19;19952;-71
2023/10/18 11:47:08;;;;;;;10.05;5.30;;;;;;;11.59;67.93;101072.44;7393683;19;20313;-71
2023/10/18 11:49:38;;;;;;;7.50;5.30;;;;;;;11.63;69.19;101065.66;7393823;19;20392;-72
2023/10/18 11:52:14;;;;;;;7.53;4.78;;;;;;;11.68;68.88;101065.13;7392791;19;19926;-72
2023/10/18 11:54:43;;;;;;;8.20;5.50;;;;;;;11.72;68.92;101064.59;7385726;19;19951;-70
2023/10/18 11:57:28;;;;;;;7.22;5.03;;;;;;;11.68;66.68;101057.88;7391270;19;20409;-69
2023/10/18 12:00:20;;;;;;;7.10;5.57;;;;;;;11.74;67.87;101050.91;7390580;19;19929;-69
2023/10/18 12:02:49;;;;;;;8.55;5.15;;;;;;;11.74;68.39;101049.06;7380099;19;19948;-69
2023/10/18 12:05:23;;;;;;;10.18;5.85;;;;;;;11.76;68.03;101044.34;7383075;19;19914;-69
2023/10/18 12:07:53;;;;;;;8.25;5.00;;;;;;;11.73;67.91;101039.31;7382706;19;20002;-69